Carmel, New York
Current Conditions -  °F | °C
As of 1:53 PM on Tuesday 21 Oct 2014 (Local Time) from KDXR Reporting Station
Overcast Overcast  
Wind Chill: 62°   Ceiling: 4900
Heat Index: 62°   Visibility: 10mi
Dew Point: 30°   Wind: 6mph
Humidity: 30%   Direction: 140°SE
Pressure: 29.87"   Gusts: NA
Location:  41.43°N, 73.68°W
Report Text: KDXR 211753Z 14005KT 10SM BKN049 OVC065 17/M01 A2987 RMK AO2 SLP115 T01671011 10178 20067 58016
Loading
Personal Weather Stations






























Interactive Weather Map
Tropical Storm Tracking
New forecast layout! Learn more

10-Day Weather Forecast

Advertisements
Track Severe Weather on mobile